KPAH/PAH METAR and TAF weather

Enter ICAO airport designator
Station Type Date Time Source
KPAH METAR 2019/12/08 16:53 UTC NOAA

KPAH 081653Z 21005KT 8SM CLR 12/07 A3008 RMK AO2 SLP188 T01220067


Station Type Date Time Source
KPAH Decoded METAR 2019/12/08 16:53 UTC NOAA

BARKLEY REGIONAL AIRPORT, KY, United States (KPAH) 37-03N 088-46W 118M
Dec 08, 2019 - 11:53 AM EST / 2019.12.08 1653 UTC
Wind: from the SSW (210 degrees) at 6 MPH (5 KT):0
Visibility: 8 mile(s):0
Sky conditions: clear
Temperature: 54.0 F (12.2 C)
Dew Point: 44.1 F (6.7 C)
Relative Humidity: 69%
Pressure (altimeter): 30.08 in. Hg (1018 hPa)
ob: KPAH 081653Z 21005KT 8SM CLR 12/07 A3008 RMK AO2 SLP188 T01220067
cycle: 17

Station Type Date Time Source
KPAH TAF 2019/12/08 15:18 UTC NOAA

TAF
AMD KPAH 081516Z 0815/0912 19004KT P6SM BKN035
FM081800 19007KT P6SM BKN025
FM090200 17010KT P6SM VCSH OVC015

Example: see airport list